sensor_id;sensor_type;location;lat;lon;timestamp;P1;durP1;ratioP1;P2;durP2;ratioP2
10667;SDS011;5382;42.136;24.796;2024-03-06T00:00:32;30.63;;;19.70;;
10667;SDS011;5382;42.136;24.796;2024-03-06T00:02:59;25.63;;;16.90;;
10667;SDS011;5382;42.136;24.796;2024-03-06T00:05:27;31.63;;;16.95;;
10667;SDS011;5382;42.136;24.796;2024-03-06T00:07:54;28.67;;;16.20;;
10667;SDS011;5382;42.136;24.796;2024-03-06T00:10:21;33.05;;;21.75;;
10667;SDS011;5382;42.136;24.796;2024-03-06T00:12:48;34.55;;;23.60;;
10667;SDS011;5382;42.136;24.796;2024-03-06T00:15:15;33.90;;;18.88;;
10667;SDS011;5382;42.136;24.796;2024-03-06T00:17:42;27.83;;;16.42;;
10667;SDS011;5382;42.136;24.796;2024-03-06T00:20:09;29.45;;;16.88;;
10667;SDS011;5382;42.136;24.796;2024-03-06T00:22:39;31.35;;;17.95;;
10667;SDS011;5382;42.136;24.796;2024-03-06T00:25:07;30.10;;;17.92;;
10667;SDS011;5382;42.136;24.796;2024-03-06T00:27:34;30.27;;;18.25;;
10667;SDS011;5382;42.136;24.796;2024-03-06T00:30:02;36.70;;;24.77;;
10667;SDS011;5382;42.136;24.796;2024-03-06T00:32:29;37.65;;;26.10;;
10667;SDS011;5382;42.136;24.796;2024-03-06T00:34:56;30.13;;;19.00;;
10667;SDS011;5382;42.136;24.796;2024-03-06T00:37:23;31.73;;;17.52;;
10667;SDS011;5382;42.136;24.796;2024-03-06T00:39:51;30.20;;;19.05;;
10667;SDS011;5382;42.136;24.796;2024-03-06T00:42:18;33.97;;;18.23;;
10667;SDS011;5382;42.136;24.796;2024-03-06T00:44:45;27.58;;;17.33;;
10667;SDS011;5382;42.136;24.796;2024-03-06T00:47:12;26.00;;;16.40;;
10667;SDS011;5382;42.136;24.796;2024-03-06T00:49:39;34.75;;;18.13;;
10667;SDS011;5382;42.136;24.796;2024-03-06T00:52:07;35.50;;;19.63;;
10667;SDS011;5382;42.136;24.796;2024-03-06T00:54:34;31.58;;;18.45;;
10667;SDS011;5382;42.136;24.796;2024-03-06T00:57:02;32.53;;;19.23;;
10667;SDS011;5382;42.136;24.796;2024-03-06T00:59:29;36.00;;;18.25;;
10667;SDS011;5382;42.136;24.796;2024-03-06T01:01:57;32.60;;;18.50;;
10667;SDS011;5382;42.136;24.796;2024-03-06T01:04:24;36.10;;;21.02;;
10667;SDS011;5382;42.136;24.796;2024-03-06T01:06:51;31.88;;;18.30;;
10667;SDS011;5382;42.136;24.796;2024-03-06T01:09:18;33.97;;;19.60;;
10667;SDS011;5382;42.136;24.796;2024-03-06T01:11:45;32.97;;;19.13;;
10667;SDS011;5382;42.136;24.796;2024-03-06T01:14:14;33.55;;;20.73;;
10667;SDS011;5382;42.136;24.796;2024-03-06T01:16:42;31.02;;;18.70;;
10667;SDS011;5382;42.136;24.796;2024-03-06T01:19:09;35.15;;;21.98;;
10667;SDS011;5382;42.136;24.796;2024-03-06T01:21:36;32.28;;;17.92;;
10667;SDS011;5382;42.136;24.796;2024-03-06T01:24:05;36.08;;;19.00;;
10667;SDS011;5382;42.136;24.796;2024-03-06T01:26:32;36.55;;;21.25;;
10667;SDS011;5382;42.136;24.796;2024-03-06T01:28:59;34.88;;;18.75;;
10667;SDS011;5382;42.136;24.796;2024-03-06T01:31:28;33.03;;;20.23;;
10667;SDS011;5382;42.136;24.796;2024-03-06T01:33:55;34.10;;;19.27;;
10667;SDS011;5382;42.136;24.796;2024-03-06T01:36:22;34.60;;;21.92;;
10667;SDS011;5382;42.136;24.796;2024-03-06T01:38:49;31.90;;;17.73;;
10667;SDS011;5382;42.136;24.796;2024-03-06T01:41:16;33.15;;;18.88;;
10667;SDS011;5382;42.136;24.796;2024-03-06T01:43:43;27.17;;;18.58;;
10667;SDS011;5382;42.136;24.796;2024-03-06T01:46:12;31.33;;;18.38;;
10667;SDS011;5382;42.136;24.796;2024-03-06T01:48:40;32.00;;;18.35;;
10667;SDS011;5382;42.136;24.796;2024-03-06T01:51:08;31.80;;;18.42;;
10667;SDS011;5382;42.136;24.796;2024-03-06T01:53:36;29.70;;;17.05;;
10667;SDS011;5382;42.136;24.796;2024-03-06T01:56:04;32.30;;;16.92;;
10667;SDS011;5382;42.136;24.796;2024-03-06T01:58:31;33.20;;;19.63;;
10667;SDS011;5382;42.136;24.796;2024-03-06T02:01:00;29.65;;;16.95;;
10667;SDS011;5382;42.136;24.796;2024-03-06T02:03:27;27.23;;;16.95;;
10667;SDS011;5382;42.136;24.796;2024-03-06T02:06:01;27.65;;;15.48;;
10667;SDS011;5382;42.136;24.796;2024-03-06T02:08:29;24.40;;;15.95;;
10667;SDS011;5382;42.136;24.796;2024-03-06T02:10:57;27.40;;;18.30;;
10667;SDS011;5382;42.136;24.796;2024-03-06T02:13:27;29.17;;;18.05;;
10667;SDS011;5382;42.136;24.796;2024-03-06T02:15:54;27.02;;;16.90;;
10667;SDS011;5382;42.136;24.796;2024-03-06T02:18:21;27.77;;;18.08;;
10667;SDS011;5382;42.136;24.796;2024-03-06T02:20:50;29.70;;;19.08;;
10667;SDS011;5382;42.136;24.796;2024-03-06T02:23:17;27.67;;;17.45;;
10667;SDS011;5382;42.136;24.796;2024-03-06T02:25:45;34.33;;;19.92;;
10667;SDS011;5382;42.136;24.796;2024-03-06T02:28:12;30.70;;;17.60;;
10667;SDS011;5382;42.136;24.796;2024-03-06T02:30:39;31.00;;;17.75;;
10667;SDS011;5382;42.136;24.796;2024-03-06T02:33:06;25.35;;;16.15;;
10667;SDS011;5382;42.136;24.796;2024-03-06T02:35:34;31.25;;;19.45;;
10667;SDS011;5382;42.136;24.796;2024-03-06T02:38:03;26.45;;;16.52;;
10667;SDS011;5382;42.136;24.796;2024-03-06T02:40:30;30.77;;;16.83;;
10667;SDS011;5382;42.136;24.796;2024-03-06T02:42:57;29.15;;;18.60;;
10667;SDS011;5382;42.136;24.796;2024-03-06T02:45:24;28.02;;;18.13;;
10667;SDS011;5382;42.136;24.796;2024-03-06T02:47:51;27.83;;;18.48;;
10667;SDS011;5382;42.136;24.796;2024-03-06T02:50:19;31.15;;;17.85;;
10667;SDS011;5382;42.136;24.796;2024-03-06T02:52:48;31.77;;;18.08;;
10667;SDS011;5382;42.136;24.796;2024-03-06T02:55:18;31.77;;;16.90;;
10667;SDS011;5382;42.136;24.796;2024-03-06T02:57:45;31.42;;;19.42;;
10667;SDS011;5382;42.136;24.796;2024-03-06T03:00:13;32.15;;;19.38;;
10667;SDS011;5382;42.136;24.796;2024-03-06T03:02:41;29.20;;;18.60;;
10667;SDS011;5382;42.136;24.796;2024-03-06T03:05:08;27.80;;;15.55;;
10667;SDS011;5382;42.136;24.796;2024-03-06T03:07:35;27.48;;;18.02;;
10667;SDS011;5382;42.136;24.796;2024-03-06T03:10:02;30.02;;;18.48;;
10667;SDS011;5382;42.136;24.796;2024-03-06T03:12:33;28.08;;;16.45;;
10667;SDS011;5382;42.136;24.796;2024-03-06T03:15:00;27.38;;;17.60;;
10667;SDS011;5382;42.136;24.796;2024-03-06T03:17:27;24.63;;;15.82;;
10667;SDS011;5382;42.136;24.796;2024-03-06T03:19:54;24.17;;;15.32;;
10667;SDS011;5382;42.136;24.796;2024-03-06T03:22:21;28.00;;;15.95;;
10667;SDS011;5382;42.136;24.796;2024-03-06T03:24:48;26.65;;;15.23;;
10667;SDS011;5382;42.136;24.796;2024-03-06T03:27:15;25.15;;;15.25;;
10667;SDS011;5382;42.136;24.796;2024-03-06T03:29:43;23.10;;;14.85;;
10667;SDS011;5382;42.136;24.796;2024-03-06T03:32:10;22.95;;;14.60;;
10667;SDS011;5382;42.136;24.796;2024-03-06T03:34:37;26.67;;;17.05;;
10667;SDS011;5382;42.136;24.796;2024-03-06T03:37:04;27.20;;;16.23;;
10667;SDS011;5382;42.136;24.796;2024-03-06T03:39:31;24.23;;;14.38;;
10667;SDS011;5382;42.136;24.796;2024-03-06T03:41:58;27.20;;;18.05;;
10667;SDS011;5382;42.136;24.796;2024-03-06T03:44:25;26.33;;;17.30;;
10667;SDS011;5382;42.136;24.796;2024-03-06T03:46:54;28.67;;;16.60;;
10667;SDS011;5382;42.136;24.796;2024-03-06T03:49:21;23.63;;;16.65;;
10667;SDS011;5382;42.136;24.796;2024-03-06T03:51:48;29.00;;;19.08;;
10667;SDS011;5382;42.136;24.796;2024-03-06T03:54:15;30.38;;;20.88;;
10667;SDS011;5382;42.136;24.796;2024-03-06T03:56:42;26.25;;;16.02;;
10667;SDS011;5382;42.136;24.796;2024-03-06T03:59:09;25.58;;;16.13;;
10667;SDS011;5382;42.136;24.796;2024-03-06T04:01:36;28.27;;;16.88;;
10667;SDS011;5382;42.136;24.796;2024-03-06T04:04:04;26.02;;;16.98;;
10667;SDS011;5382;42.136;24.796;2024-03-06T04:06:33;29.88;;;16.10;;
10667;SDS011;5382;42.136;24.796;2024-03-06T04:09:00;25.25;;;15.38;;
10667;SDS011;5382;42.136;24.796;2024-03-06T04:11:27;23.70;;;15.30;;
10667;SDS011;5382;42.136;24.796;2024-03-06T04:13:55;23.55;;;14.32;;
10667;SDS011;5382;42.136;24.796;2024-03-06T04:16:22;25.25;;;14.68;;
10667;SDS011;5382;42.136;24.796;2024-03-06T04:18:49;21.98;;;14.00;;
10667;SDS011;5382;42.136;24.796;2024-03-06T04:21:18;19.80;;;12.90;;
10667;SDS011;5382;42.136;24.796;2024-03-06T04:23:45;23.23;;;12.85;;
10667;SDS011;5382;42.136;24.796;2024-03-06T04:26:12;21.25;;;13.18;;
10667;SDS011;5382;42.136;24.796;2024-03-06T04:28:40;18.90;;;12.18;;
10667;SDS011;5382;42.136;24.796;2024-03-06T04:31:06;22.42;;;13.52;;
10667;SDS011;5382;42.136;24.796;2024-03-06T04:33:35;23.15;;;12.75;;
10667;SDS011;5382;42.136;24.796;2024-03-06T04:36:02;18.50;;;11.95;;
10667;SDS011;5382;42.136;24.796;2024-03-06T04:38:33;21.70;;;12.43;;
10667;SDS011;5382;42.136;24.796;2024-03-06T04:41:00;22.05;;;12.77;;
10667;SDS011;5382;42.136;24.796;2024-03-06T04:43:27;19.13;;;12.25;;
10667;SDS011;5382;42.136;24.796;2024-03-06T04:45:55;17.48;;;11.88;;
10667;SDS011;5382;42.136;24.796;2024-03-06T04:48:22;20.33;;;12.02;;
10667;SDS011;5382;42.136;24.796;2024-03-06T04:50:49;18.60;;;10.70;;
10667;SDS011;5382;42.136;24.796;2024-03-06T04:53:16;16.77;;;11.35;;
10667;SDS011;5382;42.136;24.796;2024-03-06T04:55:46;19.85;;;11.38;;
10667;SDS011;5382;42.136;24.796;2024-03-06T04:58:13;19.25;;;11.35;;
10667;SDS011;5382;42.136;24.796;2024-03-06T05:00:40;16.13;;;10.25;;
10667;SDS011;5382;42.136;24.796;2024-03-06T05:03:08;16.80;;;10.73;;
10667;SDS011;5382;42.136;24.796;2024-03-06T05:05:35;19.92;;;11.25;;
10667;SDS011;5382;42.136;24.796;2024-03-06T05:08:03;16.17;;;10.25;;
10667;SDS011;5382;42.136;24.796;2024-03-06T05:10:32;16.13;;;10.13;;
10667;SDS011;5382;42.136;24.796;2024-03-06T05:13:01;14.63;;;9.95;;
10667;SDS011;5382;42.136;24.796;2024-03-06T05:15:28;12.23;;;8.80;;
10667;SDS011;5382;42.136;24.796;2024-03-06T05:17:55;16.27;;;9.30;;
10667;SDS011;5382;42.136;24.796;2024-03-06T05:20:22;13.63;;;8.60;;
10667;SDS011;5382;42.136;24.796;2024-03-06T05:22:49;17.08;;;9.27;;
10667;SDS011;5382;42.136;24.796;2024-03-06T05:25:16;14.13;;;9.88;;
10667;SDS011;5382;42.136;24.796;2024-03-06T05:27:43;16.88;;;9.20;;
10667;SDS011;5382;42.136;24.796;2024-03-06T05:30:12;15.43;;;9.55;;
10667;SDS011;5382;42.136;24.796;2024-03-06T05:32:40;16.60;;;9.93;;
10667;SDS011;5382;42.136;24.796;2024-03-06T05:35:07;15.82;;;10.70;;
10667;SDS011;5382;42.136;24.796;2024-03-06T05:37:35;14.75;;;9.63;;
10667;SDS011;5382;42.136;24.796;2024-03-06T05:40:02;12.90;;;7.95;;
10667;SDS011;5382;42.136;24.796;2024-03-06T05:42:31;13.63;;;7.90;;
10667;SDS011;5382;42.136;24.796;2024-03-06T05:44:58;12.30;;;8.15;;
10667;SDS011;5382;42.136;24.796;2024-03-06T05:47:31;15.80;;;8.90;;
10667;SDS011;5382;42.136;24.796;2024-03-06T05:49:59;14.02;;;8.98;;
10667;SDS011;5382;42.136;24.796;2024-03-06T05:52:29;10.43;;;8.00;;
10667;SDS011;5382;42.136;24.796;2024-03-06T05:54:56;12.10;;;8.57;;
10667;SDS011;5382;42.136;24.796;2024-03-06T05:57:23;14.55;;;9.07;;
10667;SDS011;5382;42.136;24.796;2024-03-06T05:59:50;14.35;;;9.00;;
10667;SDS011;5382;42.136;24.796;2024-03-06T06:02:17;13.80;;;9.65;;
10667;SDS011;5382;42.136;24.796;2024-03-06T06:04:46;14.00;;;9.93;;
10667;SDS011;5382;42.136;24.796;2024-03-06T06:07:13;14.15;;;9.77;;
10667;SDS011;5382;42.136;24.796;2024-03-06T06:09:41;14.77;;;9.63;;
10667;SDS011;5382;42.136;24.796;2024-03-06T06:12:08;15.35;;;9.82;;
10667;SDS011;5382;42.136;24.796;2024-03-06T06:14:35;13.93;;;9.75;;
10667;SDS011;5382;42.136;24.796;2024-03-06T06:17:02;13.05;;;9.20;;
10667;SDS011;5382;42.136;24.796;2024-03-06T06:19:29;13.85;;;9.40;;
10667;SDS011;5382;42.136;24.796;2024-03-06T06:21:58;14.85;;;9.82;;
10667;SDS011;5382;42.136;24.796;2024-03-06T06:24:25;12.85;;;9.00;;
10667;SDS011;5382;42.136;24.796;2024-03-06T06:26:51;13.32;;;9.73;;
10667;SDS011;5382;42.136;24.796;2024-03-06T06:29:18;17.15;;;7.15;;
10667;SDS011;5382;42.136;24.796;2024-03-06T06:31:45;13.18;;;9.20;;
10667;SDS011;5382;42.136;24.796;2024-03-06T06:34:12;12.48;;;8.70;;
10667;SDS011;5382;42.136;24.796;2024-03-06T06:36:44;13.50;;;9.15;;
10667;SDS011;5382;42.136;24.796;2024-03-06T06:39:13;12.70;;;8.68;;
10667;SDS011;5382;42.136;24.796;2024-03-06T06:41:41;13.23;;;8.57;;
10667;SDS011;5382;42.136;24.796;2024-03-06T06:44:09;13.18;;;7.93;;
10667;SDS011;5382;42.136;24.796;2024-03-06T06:46:36;10.82;;;7.18;;
10667;SDS011;5382;42.136;24.796;2024-03-06T06:49:03;9.98;;;6.97;;
10667;SDS011;5382;42.136;24.796;2024-03-06T06:51:29;11.60;;;7.28;;
10667;SDS011;5382;42.136;24.796;2024-03-06T06:53:56;10.45;;;7.95;;
10667;SDS011;5382;42.136;24.796;2024-03-06T06:56:25;10.65;;;7.80;;
10667;SDS011;5382;42.136;24.796;2024-03-06T06:58:52;10.60;;;7.40;;
10667;SDS011;5382;42.136;24.796;2024-03-06T07:01:19;12.05;;;7.70;;
10667;SDS011;5382;42.136;24.796;2024-03-06T07:03:46;13.50;;;8.73;;
10667;SDS011;5382;42.136;24.796;2024-03-06T07:06:13;13.25;;;7.53;;
10667;SDS011;5382;42.136;24.796;2024-03-06T07:08:42;9.00;;;6.75;;
10667;SDS011;5382;42.136;24.796;2024-03-06T07:11:09;10.48;;;6.50;;
10667;SDS011;5382;42.136;24.796;2024-03-06T07:13:38;11.25;;;7.35;;
10667;SDS011;5382;42.136;24.796;2024-03-06T07:16:07;12.98;;;7.03;;
10667;SDS011;5382;42.136;24.796;2024-03-06T07:18:34;13.95;;;7.65;;
10667;SDS011;5382;42.136;24.796;2024-03-06T07:21:01;11.02;;;8.43;;
10667;SDS011;5382;42.136;24.796;2024-03-06T07:23:28;16.60;;;7.57;;
10667;SDS011;5382;42.136;24.796;2024-03-06T07:25:55;10.90;;;8.13;;
10667;SDS011;5382;42.136;24.796;2024-03-06T07:28:24;12.85;;;8.23;;
10667;SDS011;5382;42.136;24.796;2024-03-06T07:30:53;13.00;;;8.63;;
10667;SDS011;5382;42.136;24.796;2024-03-06T07:33:20;11.65;;;8.70;;
10667;SDS011;5382;42.136;24.796;2024-03-06T07:35:47;19.00;;;9.43;;
10667;SDS011;5382;42.136;24.796;2024-03-06T07:38:13;14.55;;;9.63;;
10667;SDS011;5382;42.136;24.796;2024-03-06T07:40:41;16.58;;;9.23;;
10667;SDS011;5382;42.136;24.796;2024-03-06T07:43:08;12.65;;;8.95;;
10667;SDS011;5382;42.136;24.796;2024-03-06T07:45:36;18.83;;;9.40;;
10667;SDS011;5382;42.136;24.796;2024-03-06T07:48:05;14.52;;;8.98;;
10667;SDS011;5382;42.136;24.796;2024-03-06T07:50:33;24.02;;;12.10;;
10667;SDS011;5382;42.136;24.796;2024-03-06T07:53:01;17.13;;;10.27;;
10667;SDS011;5382;42.136;24.796;2024-03-06T07:55:28;16.25;;;11.05;;
10667;SDS011;5382;42.136;24.796;2024-03-06T07:57:55;12.23;;;9.57;;
10667;SDS011;5382;42.136;24.796;2024-03-06T08:00:23;15.85;;;11.32;;
10667;SDS011;5382;42.136;24.796;2024-03-06T08:02:50;15.90;;;10.32;;
10667;SDS011;5382;42.136;24.796;2024-03-06T08:05:19;14.93;;;11.65;;
10667;SDS011;5382;42.136;24.796;2024-03-06T08:07:46;15.43;;;11.10;;
10667;SDS011;5382;42.136;24.796;2024-03-06T08:10:16;14.60;;;8.07;;
10667;SDS011;5382;42.136;24.796;2024-03-06T08:12:44;14.52;;;10.82;;
10667;SDS011;5382;42.136;24.796;2024-03-06T08:15:13;10.52;;;8.60;;
10667;SDS011;5382;42.136;24.796;2024-03-06T08:17:41;12.45;;;9.05;;
10667;SDS011;5382;42.136;24.796;2024-03-06T08:20:10;10.52;;;8.70;;
10667;SDS011;5382;42.136;24.796;2024-03-06T08:22:39;8.88;;;7.30;;
10667;SDS011;5382;42.136;24.796;2024-03-06T08:25:07;10.70;;;8.15;;
10667;SDS011;5382;42.136;24.796;2024-03-06T08:27:36;11.88;;;7.22;;
10667;SDS011;5382;42.136;24.796;2024-03-06T08:30:06;10.15;;;6.38;;
10667;SDS011;5382;42.136;24.796;2024-03-06T08:32:35;13.23;;;6.50;;
10667;SDS011;5382;42.136;24.796;2024-03-06T08:35:03;11.13;;;7.38;;
10667;SDS011;5382;42.136;24.796;2024-03-06T08:37:32;9.18;;;7.88;;
10667;SDS011;5382;42.136;24.796;2024-03-06T08:40:00;11.77;;;6.15;;
10667;SDS011;5382;42.136;24.796;2024-03-06T08:42:28;13.15;;;7.68;;
10667;SDS011;5382;42.136;24.796;2024-03-06T08:44:55;10.38;;;8.93;;
10667;SDS011;5382;42.136;24.796;2024-03-06T08:47:22;9.77;;;8.48;;
10667;SDS011;5382;42.136;24.796;2024-03-06T08:49:49;14.63;;;8.13;;
10667;SDS011;5382;42.136;24.796;2024-03-06T08:52:16;11.45;;;7.65;;
10667;SDS011;5382;42.136;24.796;2024-03-06T08:54:44;11.38;;;8.25;;
10667;SDS011;5382;42.136;24.796;2024-03-06T08:57:12;10.57;;;8.25;;
10667;SDS011;5382;42.136;24.796;2024-03-06T08:59:39;12.75;;;8.23;;
10667;SDS011;5382;42.136;24.796;2024-03-06T09:02:13;14.07;;;8.25;;
10667;SDS011;5382;42.136;24.796;2024-03-06T09:04:42;11.70;;;6.82;;
10667;SDS011;5382;42.136;24.796;2024-03-06T09:07:10;12.90;;;6.55;;
10667;SDS011;5382;42.136;24.796;2024-03-06T09:09:37;14.25;;;8.55;;
10667;SDS011;5382;42.136;24.796;2024-03-06T09:12:05;10.73;;;7.80;;
10667;SDS011;5382;42.136;24.796;2024-03-06T09:14:36;10.27;;;8.75;;
10667;SDS011;5382;42.136;24.796;2024-03-06T09:17:04;12.27;;;8.35;;
10667;SDS011;5382;42.136;24.796;2024-03-06T09:19:34;11.63;;;8.15;;
10667;SDS011;5382;42.136;24.796;2024-03-06T09:22:01;11.40;;;8.13;;
10667;SDS011;5382;42.136;24.796;2024-03-06T09:24:29;10.13;;;7.80;;
10667;SDS011;5382;42.136;24.796;2024-03-06T09:26:56;11.00;;;7.93;;
10667;SDS011;5382;42.136;24.796;2024-03-06T09:29:23;14.70;;;7.57;;
10667;SDS011;5382;42.136;24.796;2024-03-06T09:31:52;11.98;;;8.90;;
10667;SDS011;5382;42.136;24.796;2024-03-06T09:34:19;9.18;;;7.65;;
10667;SDS011;5382;42.136;24.796;2024-03-06T09:36:47;10.10;;;8.02;;
10667;SDS011;5382;42.136;24.796;2024-03-06T09:39:15;10.35;;;8.70;;
10667;SDS011;5382;42.136;24.796;2024-03-06T09:41:45;13.10;;;7.90;;
10667;SDS011;5382;42.136;24.796;2024-03-06T09:44:12;10.63;;;8.20;;
10667;SDS011;5382;42.136;24.796;2024-03-06T09:46:40;11.60;;;7.78;;
10667;SDS011;5382;42.136;24.796;2024-03-06T09:49:11;10.75;;;7.68;;
10667;SDS011;5382;42.136;24.796;2024-03-06T09:51:39;9.98;;;7.63;;
10667;SDS011;5382;42.136;24.796;2024-03-06T09:54:10;12.00;;;7.13;;
10667;SDS011;5382;42.136;24.796;2024-03-06T09:56:40;10.95;;;7.22;;
10667;SDS011;5382;42.136;24.796;2024-03-06T09:59:08;12.85;;;8.18;;
10667;SDS011;5382;42.136;24.796;2024-03-06T10:01:36;13.82;;;7.95;;
10667;SDS011;5382;42.136;24.796;2024-03-06T10:04:21;22.02;;;8.10;;
10667;SDS011;5382;42.136;24.796;2024-03-06T10:06:50;11.52;;;8.20;;
10667;SDS011;5382;42.136;24.796;2024-03-06T10:09:20;9.38;;;7.45;;
10667;SDS011;5382;42.136;24.796;2024-03-06T10:11:47;8.75;;;6.47;;
10667;SDS011;5382;42.136;24.796;2024-03-06T10:14:15;9.20;;;7.05;;
10667;SDS011;5382;42.136;24.796;2024-03-06T10:16:51;9.25;;;7.22;;
10667;SDS011;5382;42.136;24.796;2024-03-06T10:19:23;13.27;;;6.65;;
10667;SDS011;5382;42.136;24.796;2024-03-06T10:21:50;9.15;;;6.85;;
10667;SDS011;5382;42.136;24.796;2024-03-06T10:24:18;8.63;;;6.85;;
10667;SDS011;5382;42.136;24.796;2024-03-06T10:26:46;10.50;;;6.65;;
10667;SDS011;5382;42.136;24.796;2024-03-06T10:29:15;11.07;;;7.32;;
10667;SDS011;5382;42.136;24.796;2024-03-06T10:31:50;11.82;;;7.85;;
10667;SDS011;5382;42.136;24.796;2024-03-06T10:34:19;12.68;;;8.98;;
10667;SDS011;5382;42.136;24.796;2024-03-06T10:36:52;15.07;;;9.43;;
10667;SDS011;5382;42.136;24.796;2024-03-06T10:39:20;12.98;;;9.18;;
10667;SDS011;5382;42.136;24.796;2024-03-06T10:41:51;12.98;;;8.82;;
10667;SDS011;5382;42.136;24.796;2024-03-06T10:44:20;10.38;;;7.47;;
10667;SDS011;5382;42.136;24.796;2024-03-06T10:46:50;12.27;;;8.55;;
10667;SDS011;5382;42.136;24.796;2024-03-06T10:49:22;12.43;;;9.23;;
10667;SDS011;5382;42.136;24.796;2024-03-06T10:51:54;11.52;;;8.63;;
10667;SDS011;5382;42.136;24.796;2024-03-06T10:54:26;14.65;;;9.63;;
10667;SDS011;5382;42.136;24.796;2024-03-06T10:56:55;10.20;;;8.93;;
10667;SDS011;5382;42.136;24.796;2024-03-06T10:59:24;9.38;;;7.82;;
10667;SDS011;5382;42.136;24.796;2024-03-06T11:01:54;12.07;;;8.43;;
10667;SDS011;5382;42.136;24.796;2024-03-06T11:04:23;10.18;;;9.15;;
10667;SDS011;5382;42.136;24.796;2024-03-06T11:06:51;9.70;;;8.70;;
10667;SDS011;5382;42.136;24.796;2024-03-06T11:09:20;12.98;;;9.55;;
10667;SDS011;5382;42.136;24.796;2024-03-06T11:11:48;10.20;;;9.00;;
10667;SDS011;5382;42.136;24.796;2024-03-06T11:14:16;8.50;;;7.60;;
10667;SDS011;5382;42.136;24.796;2024-03-06T11:16:56;10.93;;;8.65;;
10667;SDS011;5382;42.136;24.796;2024-03-06T11:19:26;14.10;;;8.30;;
10667;SDS011;5382;42.136;24.796;2024-03-06T11:21:53;14.73;;;8.82;;
10667;SDS011;5382;42.136;24.796;2024-03-06T11:24:22;9.82;;;8.82;;
10667;SDS011;5382;42.136;24.796;2024-03-06T11:26:50;11.82;;;8.98;;
10667;SDS011;5382;42.136;24.796;2024-03-06T11:29:23;9.75;;;8.75;;
10667;SDS011;5382;42.136;24.796;2024-03-06T11:32:01;10.68;;;9.02;;
10667;SDS011;5382;42.136;24.796;2024-03-06T11:34:34;12.82;;;9.15;;
10667;SDS011;5382;42.136;24.796;2024-03-06T11:37:05;12.15;;;9.40;;
10667;SDS011;5382;42.136;24.796;2024-03-06T11:39:36;10.93;;;9.55;;
10667;SDS011;5382;42.136;24.796;2024-03-06T11:42:04;12.23;;;9.13;;
10667;SDS011;5382;42.136;24.796;2024-03-06T11:44:33;13.48;;;9.50;;
10667;SDS011;5382;42.136;24.796;2024-03-06T11:47:01;9.48;;;8.57;;
10667;SDS011;5382;42.136;24.796;2024-03-06T11:49:30;11.32;;;8.70;;
10667;SDS011;5382;42.136;24.796;2024-03-06T11:52:00;11.60;;;9.48;;
10667;SDS011;5382;42.136;24.796;2024-03-06T11:54:29;10.23;;;9.23;;
10667;SDS011;5382;42.136;24.796;2024-03-06T11:56:58;11.77;;;9.55;;
10667;SDS011;5382;42.136;24.796;2024-03-06T11:59:26;15.30;;;9.63;;
10667;SDS011;5382;42.136;24.796;2024-03-06T12:01:55;14.02;;;10.25;;
10667;SDS011;5382;42.136;24.796;2024-03-06T12:04:23;14.02;;;9.15;;
10667;SDS011;5382;42.136;24.796;2024-03-06T12:06:51;12.70;;;9.68;;
10667;SDS011;5382;42.136;24.796;2024-03-06T12:09:18;11.07;;;9.43;;
10667;SDS011;5382;42.136;24.796;2024-03-06T12:11:45;10.82;;;9.70;;
10667;SDS011;5382;42.136;24.796;2024-03-06T12:14:17;10.93;;;9.77;;
10667;SDS011;5382;42.136;24.796;2024-03-06T12:16:54;12.70;;;9.98;;
10667;SDS011;5382;42.136;24.796;2024-03-06T12:19:22;12.75;;;9.93;;
10667;SDS011;5382;42.136;24.796;2024-03-06T12:21:50;15.35;;;10.48;;
10667;SDS011;5382;42.136;24.796;2024-03-06T12:24:19;10.93;;;9.82;;
10667;SDS011;5382;42.136;24.796;2024-03-06T12:26:46;15.50;;;10.43;;
10667;SDS011;5382;42.136;24.796;2024-03-06T12:29:16;13.02;;;10.82;;
10667;SDS011;5382;42.136;24.796;2024-03-06T12:31:45;12.43;;;10.25;;
10667;SDS011;5382;42.136;24.796;2024-03-06T12:34:13;11.73;;;10.52;;
10667;SDS011;5382;42.136;24.796;2024-03-06T12:36:42;11.65;;;10.40;;
10667;SDS011;5382;42.136;24.796;2024-03-06T12:39:09;15.80;;;10.93;;
10667;SDS011;5382;42.136;24.796;2024-03-06T12:41:46;11.10;;;9.98;;
10667;SDS011;5382;42.136;24.796;2024-03-06T12:44:13;13.02;;;11.13;;
10667;SDS011;5382;42.136;24.796;2024-03-06T12:46:42;13.30;;;10.40;;
10667;SDS011;5382;42.136;24.796;2024-03-06T12:49:10;11.48;;;9.32;;
10667;SDS011;5382;42.136;24.796;2024-03-06T12:51:37;11.23;;;10.02;;
10667;SDS011;5382;42.136;24.796;2024-03-06T12:54:05;11.70;;;9.75;;
10667;SDS011;5382;42.136;24.796;2024-03-06T12:56:33;12.55;;;9.93;;
10667;SDS011;5382;42.136;24.796;2024-03-06T12:59:01;10.38;;;9.10;;
10667;SDS011;5382;42.136;24.796;2024-03-06T13:01:29;10.73;;;9.63;;
10667;SDS011;5382;42.136;24.796;2024-03-06T13:03:58;11.20;;;10.05;;
10667;SDS011;5382;42.136;24.796;2024-03-06T13:06:27;12.60;;;10.50;;
10667;SDS011;5382;42.136;24.796;2024-03-06T13:08:56;12.02;;;9.70;;
10667;SDS011;5382;42.136;24.796;2024-03-06T13:11:23;13.25;;;9.77;;
10667;SDS011;5382;42.136;24.796;2024-03-06T13:13:50;11.27;;;9.50;;
10667;SDS011;5382;42.136;24.796;2024-03-06T13:16:18;12.18;;;9.38;;
10667;SDS011;5382;42.136;24.796;2024-03-06T13:18:47;15.75;;;10.15;;
10667;SDS011;5382;42.136;24.796;2024-03-06T13:21:16;10.95;;;9.82;;
10667;SDS011;5382;42.136;24.796;2024-03-06T13:23:43;10.43;;;9.20;;
10667;SDS011;5382;42.136;24.796;2024-03-06T13:26:11;11.20;;;9.38;;
10667;SDS011;5382;42.136;24.796;2024-03-06T13:28:40;10.95;;;8.98;;
10667;SDS011;5382;42.136;24.796;2024-03-06T13:31:07;11.07;;;9.35;;
10667;SDS011;5382;42.136;24.796;2024-03-06T13:33:34;11.15;;;9.32;;
10667;SDS011;5382;42.136;24.796;2024-03-06T13:36:01;10.60;;;8.95;;
10667;SDS011;5382;42.136;24.796;2024-03-06T13:38:30;11.45;;;9.05;;
10667;SDS011;5382;42.136;24.796;2024-03-06T13:40:57;9.82;;;8.82;;
10667;SDS011;5382;42.136;24.796;2024-03-06T13:43:27;9.68;;;8.68;;
10667;SDS011;5382;42.136;24.796;2024-03-06T13:45:54;9.50;;;7.97;;
10667;SDS011;5382;42.136;24.796;2024-03-06T13:48:21;9.48;;;7.50;;
10667;SDS011;5382;42.136;24.796;2024-03-06T13:50:48;10.00;;;8.90;;
10667;SDS011;5382;42.136;24.796;2024-03-06T13:53:15;10.45;;;9.27;;
10667;SDS011;5382;42.136;24.796;2024-03-06T13:55:44;10.60;;;9.50;;
10667;SDS011;5382;42.136;24.796;2024-03-06T13:58:10;8.98;;;8.05;;
10667;SDS011;5382;42.136;24.796;2024-03-06T14:00:38;10.30;;;9.02;;
10667;SDS011;5382;42.136;24.796;2024-03-06T14:03:05;10.43;;;8.57;;
10667;SDS011;5382;42.136;24.796;2024-03-06T14:05:31;14.48;;;9.20;;
10667;SDS011;5382;42.136;24.796;2024-03-06T14:07:59;9.27;;;7.80;;
10667;SDS011;5382;42.136;24.796;2024-03-06T14:10:26;9.80;;;8.30;;
10667;SDS011;5382;42.136;24.796;2024-03-06T14:12:54;9.57;;;7.68;;
10667;SDS011;5382;42.136;24.796;2024-03-06T14:15:22;8.77;;;6.85;;
10667;SDS011;5382;42.136;24.796;2024-03-06T14:17:49;8.50;;;7.30;;
10667;SDS011;5382;42.136;24.796;2024-03-06T14:20:16;7.15;;;6.20;;
10667;SDS011;5382;42.136;24.796;2024-03-06T14:22:43;8.05;;;6.10;;
10667;SDS011;5382;42.136;24.796;2024-03-06T14:25:10;11.25;;;7.30;;
10667;SDS011;5382;42.136;24.796;2024-03-06T14:27:37;6.13;;;5.47;;
10667;SDS011;5382;42.136;24.796;2024-03-06T14:30:06;7.55;;;5.90;;
10667;SDS011;5382;42.136;24.796;2024-03-06T14:32:36;8.25;;;6.15;;
10667;SDS011;5382;42.136;24.796;2024-03-06T14:35:03;6.85;;;6.13;;